MNL weather

Ninoy Aquino International Airport
Manila, Philippines

Public forecast

Using degrees Celsius for public forecast. Weather courtesy of forecast.io.

Current aviation weather report (METAR) for Ninoy Aquino International Airport

Retrieved 2019/11/19 14:00 UTC (25 minutes ago):

RPLL 191400Z VRB03KT 9999 FEW025 SCT100 29/25 Q1009 NOSIG RMK A2980

Aviation forecast (TAF) for Ninoy Aquino International Airport

Retrieved 2019/11/19 12:00 UTC (2 hours ago):

TAF RPLL 191100Z 1912/2018 10005KT 9999 FEW025 SCT300 TX32/2006Z TN26/1921Z TEMPO 1912/1918 04005KT TEMPO 1918/1924 VRB02KT FEW023 SCT090